createdAt,value
2022-09-29T00:02:14.470Z,10.07
2022-09-29T00:04:41.835Z,4.80
2022-09-29T00:07:09.262Z,6.43
2022-09-29T00:09:36.960Z,4.85
2022-09-29T00:12:04.404Z,3.78
2022-09-29T00:14:31.713Z,5.38
2022-09-29T00:16:58.966Z,4.20
2022-09-29T00:19:28.767Z,4.85
2022-09-29T00:21:56.029Z,5.13
2022-09-29T00:24:23.362Z,4.75
2022-09-29T00:26:50.907Z,5.07
2022-09-29T00:29:18.194Z,3.97
2022-09-29T00:31:45.622Z,5.32
2022-09-29T00:34:13.074Z,4.72
2022-09-29T00:36:41.420Z,4.70
2022-09-29T00:39:08.768Z,5.57
2022-09-29T00:41:37.417Z,4.87
2022-09-29T00:44:13.941Z,5.35
2022-09-29T00:46:41.464Z,5.47
2022-09-29T00:49:14.918Z,5.10
2022-09-29T00:51:43.727Z,4.93
2022-09-29T00:54:11.207Z,4.70
2022-09-29T00:56:40.248Z,4.78
2022-09-29T00:59:12.733Z,5.50
2022-09-29T01:01:40.075Z,6.07
2022-09-29T01:04:13.010Z,5.40
2022-09-29T01:06:42.580Z,6.30
2022-09-29T01:09:11.988Z,5.80
2022-09-29T01:11:39.243Z,6.43
2022-09-29T01:14:08.594Z,6.68
2022-09-29T01:16:37.220Z,5.85
2022-09-29T01:19:08.005Z,5.50
2022-09-29T01:22:01.715Z,5.40
2022-09-29T01:24:52.424Z,5.32
2022-09-29T01:27:22.520Z,7.25
2022-09-29T01:30:03.103Z,6.97
2022-09-29T01:32:49.323Z,6.13
2022-09-29T01:35:35.070Z,5.07
2022-09-29T01:38:20.823Z,6.10
2022-09-29T01:40:57.561Z,6.20
2022-09-29T01:43:26.464Z,6.75
2022-09-29T01:46:14.091Z,5.30
2022-09-29T01:48:45.049Z,8.35
2022-09-29T01:51:18.008Z,6.80
2022-09-29T01:53:48.778Z,6.00
2022-09-29T01:56:22.284Z,5.95
2022-09-29T01:58:57.644Z,4.77
2022-09-29T02:01:26.847Z,5.72
2022-09-29T02:03:54.086Z,5.88
2022-09-29T02:06:23.488Z,5.78
2022-09-29T02:08:54.864Z,6.40
2022-09-29T02:11:22.582Z,6.13
2022-09-29T02:14:08.750Z,5.68
2022-09-29T02:16:38.272Z,5.88
2022-09-29T02:19:08.887Z,5.72
2022-09-29T02:21:36.401Z,5.32
2022-09-29T02:24:03.769Z,6.80
2022-09-29T02:26:36.360Z,5.45
2022-09-29T02:29:04.851Z,5.55
2022-09-29T02:31:33.246Z,5.40
2022-09-29T02:34:02.662Z,5.53
2022-09-29T02:36:31.151Z,7.03
2022-09-29T02:39:03.500Z,9.65
2022-09-29T02:41:36.799Z,5.47
2022-09-29T02:44:04.084Z,5.20
2022-09-29T02:46:31.322Z,5.90
2022-09-29T02:49:04.798Z,7.93
2022-09-29T02:51:32.062Z,4.63
2022-09-29T02:54:14.775Z,5.55
2022-09-29T02:56:55.268Z,4.55
2022-09-29T02:59:27.426Z,4.20
2022-09-29T03:01:56.051Z,5.10
2022-09-29T03:04:24.590Z,4.18
2022-09-29T03:06:52.273Z,5.40
2022-09-29T03:09:19.619Z,5.55
2022-09-29T03:11:47.239Z,4.85
2022-09-29T03:14:14.545Z,4.43
2022-09-29T03:16:43.095Z,4.53
2022-09-29T03:19:10.419Z,5.15
2022-09-29T03:21:37.787Z,4.95
2022-09-29T03:24:06.070Z,6.05
2022-09-29T03:26:33.732Z,5.90
2022-09-29T03:29:01.081Z,5.18
2022-09-29T03:31:28.532Z,5.65
2022-09-29T03:33:56.003Z,5.85
2022-09-29T03:36:23.371Z,5.70
2022-09-29T03:38:50.678Z,5.60
2022-09-29T03:41:18.117Z,5.95
2022-09-29T03:43:45.490Z,6.03
2022-09-29T03:46:12.860Z,5.80
2022-09-29T03:48:41.352Z,5.80
2022-09-29T03:51:08.694Z,4.97
2022-09-29T03:53:35.983Z,5.13
2022-09-29T03:56:04.154Z,5.60
2022-09-29T03:58:31.452Z,5.57
2022-09-29T04:00:58.780Z,4.93
2022-09-29T04:03:26.258Z,5.43
2022-09-29T04:05:53.567Z,5.10
2022-09-29T04:08:20.888Z,5.10
2022-09-29T04:10:48.620Z,4.50
2022-09-29T04:13:19.853Z,5.38
2022-09-29T04:15:47.746Z,4.87
2022-09-29T04:18:15.067Z,5.53
2022-09-29T04:20:42.459Z,6.18
2022-09-29T04:23:09.927Z,5.55
2022-09-29T04:25:37.158Z,5.78
2022-09-29T04:28:04.497Z,5.60
2022-09-29T04:30:31.785Z,5.82
2022-09-29T04:32:59.180Z,5.90
2022-09-29T04:35:26.443Z,5.38
2022-09-29T04:38:00.163Z,6.22
2022-09-29T04:40:27.538Z,5.83
2022-09-29T04:42:55.402Z,6.50
2022-09-29T04:45:22.763Z,6.13
2022-09-29T04:47:50.053Z,5.70
2022-09-29T04:50:17.438Z,6.05
2022-09-29T04:52:45.000Z,5.63
2022-09-29T04:55:13.205Z,5.60
2022-09-29T04:57:41.976Z,5.95
2022-09-29T05:00:10.191Z,5.57
2022-09-29T05:02:37.811Z,6.32
2022-09-29T05:05:09.285Z,5.60
2022-09-29T05:07:37.802Z,6.95
2022-09-29T05:10:05.663Z,15.60
2022-09-29T05:12:32.963Z,8.18
2022-09-29T05:15:00.458Z,5.90
2022-09-29T05:17:27.925Z,5.70
2022-09-29T05:19:55.232Z,6.32
2022-09-29T05:22:24.581Z,6.60
2022-09-29T05:24:52.546Z,6.50
2022-09-29T05:27:19.835Z,5.78
2022-09-29T05:29:47.161Z,7.80
2022-09-29T05:32:14.463Z,7.15
2022-09-29T05:34:42.964Z,6.93
2022-09-29T05:37:10.563Z,6.78
2022-09-29T05:39:38.058Z,7.25
2022-09-29T05:42:06.594Z,7.17
2022-09-29T05:44:34.109Z,10.10
2022-09-29T05:47:01.471Z,7.18
2022-09-29T05:49:30.904Z,6.82
2022-09-29T05:51:58.109Z,11.68
2022-09-29T05:54:27.431Z,10.73
2022-09-29T05:56:54.934Z,9.32
2022-09-29T05:59:22.321Z,6.93
2022-09-29T06:01:49.670Z,7.95
2022-09-29T06:04:17.560Z,9.30
2022-09-29T06:06:45.010Z,8.70
2022-09-29T06:09:12.384Z,7.10
2022-09-29T06:11:39.801Z,9.52
2022-09-29T06:14:07.113Z,7.85
2022-09-29T06:16:34.902Z,11.07
2022-09-29T06:19:02.762Z,10.27
2022-09-29T06:21:30.774Z,11.40
2022-09-29T06:23:58.777Z,14.70
2022-09-29T06:26:27.035Z,9.32
2022-09-29T06:28:54.569Z,8.15
2022-09-29T06:31:22.841Z,10.87
2022-09-29T06:33:50.853Z,9.85
2022-09-29T06:36:38.724Z,10.73
2022-09-29T06:39:06.919Z,9.48
2022-09-29T06:41:35.374Z,8.93
2022-09-29T06:44:03.301Z,9.47
2022-09-29T06:46:30.615Z,7.78
2022-09-29T06:48:58.216Z,10.25
2022-09-29T06:51:36.772Z,9.57
2022-09-29T06:54:15.217Z,10.07
2022-09-29T06:56:42.874Z,8.33
2022-09-29T06:59:10.242Z,7.72
2022-09-29T07:01:37.589Z,13.82
2022-09-29T07:04:05.018Z,8.95
2022-09-29T07:06:32.457Z,10.93
2022-09-29T07:09:01.350Z,10.17
2022-09-29T07:11:29.066Z,10.40
2022-09-29T07:13:56.465Z,10.98
2022-09-29T07:16:24.334Z,9.75
2022-09-29T07:18:52.335Z,12.00
2022-09-29T07:21:19.904Z,10.93
2022-09-29T07:23:47.929Z,11.25
2022-09-29T07:26:16.714Z,11.57
2022-09-29T07:28:44.751Z,14.70
2022-09-29T07:31:15.488Z,13.70
2022-09-29T07:33:43.719Z,12.53
2022-09-29T07:36:11.344Z,13.52
2022-09-29T07:38:38.665Z,17.27
2022-09-29T07:41:08.433Z,17.58
2022-09-29T07:43:35.780Z,15.02
2022-09-29T07:46:03.351Z,15.47
2022-09-29T07:48:32.142Z,15.45
2022-09-29T07:51:02.813Z,14.35
2022-09-29T07:53:30.756Z,14.57
2022-09-29T07:56:03.225Z,17.88
2022-09-29T07:58:32.287Z,16.50
2022-09-29T08:00:59.896Z,15.80
2022-09-29T08:03:27.265Z,18.48
2022-09-29T08:05:54.753Z,16.98
2022-09-29T08:08:22.013Z,14.48
2022-09-29T08:10:53.347Z,17.73
2022-09-29T08:13:21.569Z,17.15
2022-09-29T08:15:48.826Z,14.82
2022-09-29T08:18:16.098Z,14.30
2022-09-29T08:20:43.390Z,14.02
2022-09-29T08:23:10.629Z,19.27
2022-09-29T08:25:37.941Z,15.02
2022-09-29T08:28:05.207Z,17.67
2022-09-29T08:30:32.498Z,15.13
2022-09-29T08:32:59.908Z,19.95
2022-09-29T08:35:27.222Z,14.50
2022-09-29T08:37:55.148Z,21.70
2022-09-29T08:40:22.593Z,18.17
2022-09-29T08:43:26.332Z,14.65
2022-09-29T08:46:02.159Z,15.82
2022-09-29T08:48:32.887Z,18.50
2022-09-29T08:51:03.672Z,18.48
2022-09-29T08:53:33.164Z,19.67
2022-09-29T08:56:19.500Z,18.85
2022-09-29T08:58:46.901Z,15.73
2022-09-29T09:01:33.097Z,20.20
2022-09-29T09:04:23.134Z,20.80
2022-09-29T09:07:02.342Z,19.88
2022-09-29T09:09:29.657Z,18.58
2022-09-29T09:11:57.409Z,22.83
2022-09-29T09:14:24.715Z,18.97
2022-09-29T09:16:52.072Z,15.98
2022-09-29T09:19:38.189Z,16.65
2022-09-29T09:22:11.386Z,19.48
2022-09-29T09:24:45.766Z,22.35
2022-09-29T09:27:16.434Z,17.83
2022-09-29T09:29:45.111Z,15.35
2022-09-29T09:32:21.840Z,19.58
2022-09-29T09:35:16.678Z,21.05
2022-09-29T09:37:49.083Z,16.90
2022-09-29T09:40:19.135Z,16.47
2022-09-29T09:42:49.133Z,16.23
2022-09-29T09:45:16.410Z,13.70
2022-09-29T09:47:49.459Z,13.75
2022-09-29T09:50:17.741Z,12.40
2022-09-29T09:52:47.645Z,13.50
2022-09-29T09:55:22.192Z,19.88
2022-09-29T09:58:02.600Z,13.00
2022-09-29T10:00:33.600Z,12.05
2022-09-29T10:03:03.256Z,11.93
2022-09-29T10:05:34.301Z,12.97
2022-09-29T10:08:02.015Z,12.60
2022-09-29T10:10:29.956Z,10.70
2022-09-29T10:13:00.153Z,12.70
2022-09-29T10:15:33.592Z,10.75
2022-09-29T10:18:04.130Z,11.77
2022-09-29T10:20:36.638Z,10.55
2022-09-29T10:23:19.562Z,8.55
2022-09-29T10:26:00.428Z,11.10
2022-09-29T10:28:31.253Z,12.75
2022-09-29T10:30:58.746Z,6.70
2022-09-29T10:33:27.047Z,6.40
2022-09-29T10:36:04.938Z,5.40
2022-09-29T10:38:32.306Z,6.35
2022-09-29T10:41:04.852Z,5.38
2022-09-29T10:43:35.225Z,5.70
2022-09-29T10:46:02.704Z,5.75
2022-09-29T10:48:30.031Z,8.05
2022-09-29T10:53:32.210Z,5.40
2022-09-29T10:56:01.782Z,5.13
2022-09-29T10:58:44.722Z,4.10
2022-09-29T11:01:19.977Z,11.10
2022-09-29T11:04:07.702Z,4.43
2022-09-29T11:06:38.436Z,5.20
2022-09-29T11:09:14.111Z,3.03
2022-09-29T11:11:57.942Z,3.40
2022-09-29T11:14:36.829Z,3.50
2022-09-29T11:17:21.383Z,8.75
2022-09-29T11:19:49.588Z,5.93
2022-09-29T11:22:38.959Z,4.87
2022-09-29T11:25:18.383Z,4.30
2022-09-29T11:28:18.331Z,5.10
2022-09-29T11:30:45.677Z,7.10
2022-09-29T11:33:13.045Z,8.23
2022-09-29T11:35:46.399Z,4.40
2022-09-29T11:38:35.334Z,3.40
2022-09-29T11:41:23.277Z,3.38
2022-09-29T11:44:01.551Z,3.75
2022-09-29T11:46:45.292Z,2.50
2022-09-29T11:49:19.998Z,2.90
2022-09-29T11:51:56.601Z,3.10
2022-09-29T11:54:32.248Z,4.72
2022-09-29T11:57:23.002Z,5.45
2022-09-29T12:00:22.860Z,9.18
2022-09-29T12:02:59.730Z,4.37
2022-09-29T12:05:36.681Z,3.90
2022-09-29T12:08:22.932Z,3.95
2022-09-29T12:11:23.702Z,4.82
2022-09-29T12:14:08.370Z,4.88
2022-09-29T12:16:39.229Z,2.80
2022-09-29T12:19:16.576Z,3.13
2022-09-29T12:21:47.185Z,3.00
2022-09-29T12:24:32.263Z,3.90
2022-09-29T12:27:00.904Z,2.35
2022-09-29T12:29:46.844Z,12.00
2022-09-29T12:32:19.199Z,4.30
2022-09-29T12:34:52.662Z,5.70
2022-09-29T12:37:28.522Z,3.80
2022-09-29T12:40:34.587Z,3.30
2022-09-29T12:43:04.564Z,2.17
2022-09-29T12:45:37.663Z,2.42
2022-09-29T12:48:20.318Z,3.25
2022-09-29T12:51:10.892Z,5.93
2022-09-29T12:53:47.364Z,5.13
2022-09-29T12:56:44.010Z,3.97
2022-09-29T12:59:32.826Z,3.10
2022-09-29T13:02:01.692Z,2.45
2022-09-29T13:04:35.035Z,2.38
2022-09-29T13:07:02.367Z,2.85
2022-09-29T13:09:36.428Z,2.80
2022-09-29T13:12:06.851Z,3.83
2022-09-29T13:14:39.895Z,3.53
2022-09-29T13:17:19.591Z,5.57
2022-09-29T13:20:06.372Z,3.55
2022-09-29T13:22:52.822Z,2.40
2022-09-29T13:25:32.052Z,3.05
2022-09-29T13:27:59.656Z,3.28
2022-09-29T13:30:29.412Z,2.47
2022-09-29T13:32:56.867Z,5.35
2022-09-29T13:35:25.369Z,7.10
2022-09-29T13:37:57.181Z,7.13
2022-09-29T13:40:25.823Z,13.23
2022-09-29T13:42:55.773Z,7.70
2022-09-29T13:45:31.274Z,8.95
2022-09-29T13:48:02.013Z,4.93
2022-09-29T13:50:59.559Z,8.30
2022-09-29T13:53:35.436Z,4.07
2022-09-29T13:56:02.750Z,4.70
2022-09-29T13:58:31.299Z,5.78
2022-09-29T14:01:00.335Z,2.60
2022-09-29T14:03:36.791Z,3.30
2022-09-29T14:06:36.083Z,3.20
2022-09-29T14:09:03.930Z,3.95
2022-09-29T14:11:39.625Z,7.20
2022-09-29T14:14:09.251Z,6.40
2022-09-29T14:16:39.418Z,3.17
2022-09-29T14:19:13.098Z,5.97
2022-09-29T14:21:49.445Z,2.50
2022-09-29T14:24:35.022Z,4.22
2022-09-29T14:27:21.451Z,4.57
2022-09-29T14:29:53.496Z,2.80
2022-09-29T14:32:22.807Z,3.35
2022-09-29T14:34:53.737Z,3.28
2022-09-29T14:37:22.792Z,3.40
2022-09-29T14:40:09.499Z,3.97
2022-09-29T14:42:36.954Z,3.13
2022-09-29T14:45:25.856Z,5.18
2022-09-29T14:48:11.769Z,3.47
2022-09-29T14:51:04.989Z,3.10
2022-09-29T14:53:45.021Z,2.30
2022-09-29T14:56:27.778Z,1.50
2022-09-29T14:59:06.886Z,2.25
2022-09-29T15:01:36.964Z,1.48
2022-09-29T15:04:22.808Z,1.75
2022-09-29T15:06:51.682Z,1.00
2022-09-29T15:09:19.121Z,1.30
2022-09-29T15:11:50.889Z,1.42
2022-09-29T15:14:18.381Z,0.93
2022-09-29T15:16:54.900Z,0.77
2022-09-29T15:19:30.909Z,0.80
2022-09-29T15:22:08.125Z,0.60
2022-09-29T15:24:35.394Z,6.32
2022-09-29T15:27:06.525Z,2.60
2022-09-29T15:29:33.878Z,2.33
2022-09-29T15:32:02.271Z,0.70
2022-09-29T15:34:29.587Z,2.83
2022-09-29T15:36:58.877Z,0.70
2022-09-29T15:39:46.470Z,2.90
2022-09-29T15:42:16.516Z,0.85
2022-09-29T15:44:49.128Z,1.23
2022-09-29T15:47:24.211Z,8.00
2022-09-29T15:49:52.750Z,1.45
2022-09-29T15:52:23.633Z,1.63
2022-09-29T15:54:55.820Z,5.13
2022-09-29T15:57:43.301Z,3.17
2022-09-29T16:00:22.758Z,1.33
2022-09-29T16:02:50.068Z,0.90
2022-09-29T16:05:20.807Z,1.45
2022-09-29T16:07:50.901Z,0.80
2022-09-29T16:10:20.019Z,4.33
2022-09-29T16:12:54.327Z,5.15
2022-09-29T16:15:25.581Z,2.63
2022-09-29T16:17:53.341Z,1.10
2022-09-29T16:20:24.984Z,2.42
2022-09-29T16:22:52.344Z,1.40
2022-09-29T16:25:31.556Z,3.20
2022-09-29T16:27:59.922Z,5.82
2022-09-29T16:30:29.191Z,3.92
2022-09-29T16:33:16.868Z,2.90
2022-09-29T16:35:59.040Z,2.73
2022-09-29T16:38:36.204Z,1.65
2022-09-29T16:41:12.803Z,2.20
2022-09-29T16:43:42.226Z,2.85
2022-09-29T16:46:10.819Z,4.68
2022-09-29T16:48:41.503Z,2.93
2022-09-29T16:51:38.338Z,6.05
2022-09-29T16:54:06.360Z,2.60
2022-09-29T16:56:35.445Z,3.63
2022-09-29T16:59:13.583Z,2.55
2022-09-29T17:01:41.438Z,3.67
2022-09-29T17:04:09.033Z,2.83
2022-09-29T17:06:36.371Z,3.55
2022-09-29T17:09:06.966Z,5.65
2022-09-29T17:11:35.584Z,2.10
2022-09-29T17:14:03.069Z,3.23
2022-09-29T17:16:31.199Z,2.83
2022-09-29T17:19:01.190Z,5.93
2022-09-29T17:21:30.294Z,4.10
2022-09-29T17:24:00.411Z,2.03
2022-09-29T17:26:53.918Z,1.60
2022-09-29T17:29:21.201Z,1.20
2022-09-29T17:31:48.579Z,2.85
2022-09-29T17:34:17.467Z,1.92
2022-09-29T17:36:45.447Z,2.72
2022-09-29T17:39:12.854Z,7.47
2022-09-29T17:41:45.110Z,1.20
2022-09-29T17:44:13.250Z,5.47
2022-09-29T17:46:40.664Z,5.32
2022-09-29T17:49:15.013Z,1.40
2022-09-29T17:51:42.422Z,2.10
2022-09-29T17:54:09.746Z,2.22
2022-09-29T17:56:40.639Z,7.57
2022-09-29T17:59:10.268Z,5.45
2022-09-29T18:01:38.694Z,4.40
2022-09-29T18:04:07.886Z,4.77
2022-09-29T18:06:37.766Z,2.85
2022-09-29T18:09:16.172Z,4.72
2022-09-29T18:11:43.967Z,5.38
2022-09-29T18:14:11.614Z,3.92
2022-09-29T18:16:38.947Z,3.83
2022-09-29T18:19:17.087Z,4.40
2022-09-29T18:21:45.206Z,6.00
2022-09-29T18:24:13.291Z,3.60
2022-09-29T18:26:44.076Z,2.90
2022-09-29T18:29:16.812Z,2.40
2022-09-29T18:31:44.268Z,7.65
2022-09-29T18:34:23.336Z,4.45
2022-09-29T18:36:50.799Z,3.45
2022-09-29T18:39:18.152Z,3.70
2022-09-29T18:41:45.496Z,3.93
2022-09-29T18:44:14.207Z,5.50
2022-09-29T18:46:44.657Z,13.40
2022-09-29T18:49:12.932Z,8.23
2022-09-29T18:51:40.321Z,15.07
2022-09-29T18:54:08.384Z,7.90
2022-09-29T18:56:36.013Z,7.68
2022-09-29T18:59:07.672Z,8.50
2022-09-29T19:01:35.180Z,6.53
2022-09-29T19:04:02.869Z,9.32
2022-09-29T19:06:30.120Z,22.73
2022-09-29T19:08:58.012Z,28.58
2022-09-29T19:11:26.553Z,25.15
2022-09-29T19:13:56.655Z,22.88
2022-09-29T19:16:25.911Z,21.10
2022-09-29T19:18:53.239Z,17.17
2022-09-29T19:21:20.559Z,13.30
2022-09-29T19:23:47.965Z,8.75
2022-09-29T19:26:16.691Z,7.05
2022-09-29T19:28:44.530Z,13.95
2022-09-29T19:31:13.073Z,10.37
2022-09-29T19:33:41.524Z,14.52
2022-09-29T19:36:10.465Z,10.82
2022-09-29T19:38:38.267Z,29.67
2022-09-29T19:41:06.255Z,41.67
2022-09-29T19:43:33.612Z,38.37
2022-09-29T19:46:06.817Z,17.80
2022-09-29T19:48:34.191Z,15.10
2022-09-29T19:51:20.201Z,13.15
2022-09-29T19:53:49.557Z,6.80
2022-09-29T19:56:17.463Z,11.30
2022-09-29T19:58:45.039Z,7.78
2022-09-29T20:01:12.881Z,9.98
2022-09-29T20:03:43.385Z,7.25
2022-09-29T20:06:10.756Z,13.13
2022-09-29T20:08:38.088Z,8.93
2022-09-29T20:11:09.769Z,9.93
2022-09-29T20:13:37.232Z,10.52
2022-09-29T20:16:05.910Z,9.20
2022-09-29T20:18:36.580Z,9.40
2022-09-29T20:21:10.698Z,6.90
2022-09-29T20:23:39.312Z,6.03
2022-09-29T20:26:10.173Z,9.20
2022-09-29T20:28:37.841Z,8.93
2022-09-29T20:31:07.636Z,23.90
2022-09-29T20:33:36.301Z,31.33
2022-09-29T20:36:04.313Z,29.27
2022-09-29T20:38:34.418Z,23.70
2022-09-29T20:41:02.305Z,10.57
2022-09-29T20:43:29.713Z,7.15
2022-09-29T20:46:04.677Z,6.40
2022-09-29T20:48:32.817Z,6.13
2022-09-29T20:51:00.977Z,4.43
2022-09-29T20:53:28.973Z,10.85
2022-09-29T20:56:05.985Z,25.90
2022-09-29T20:58:33.622Z,9.33
2022-09-29T21:01:12.708Z,10.77
2022-09-29T21:03:40.329Z,7.22
2022-09-29T21:06:07.699Z,6.53
2022-09-29T21:08:35.153Z,4.85
2022-09-29T21:11:03.517Z,6.50
2022-09-29T21:13:32.048Z,4.97
2022-09-29T21:16:00.269Z,4.00
2022-09-29T21:18:28.236Z,7.00
2022-09-29T21:20:59.466Z,7.05
2022-09-29T21:23:27.377Z,9.40
2022-09-29T21:26:00.887Z,12.07
2022-09-29T21:28:28.298Z,17.65
2022-09-29T21:31:06.142Z,12.10
2022-09-29T21:33:34.082Z,12.43
2022-09-29T21:36:02.612Z,13.67
2022-09-29T21:38:32.184Z,10.85
2022-09-29T21:41:06.848Z,12.45
2022-09-29T21:43:35.296Z,11.68
2022-09-29T21:46:06.837Z,10.57
2022-09-29T21:48:35.112Z,11.37
2022-09-29T21:51:06.314Z,11.20
2022-09-29T21:53:34.397Z,11.35
2022-09-29T21:56:02.882Z,11.23
2022-09-29T21:58:30.164Z,9.77
2022-09-29T22:00:57.643Z,13.43
2022-09-29T22:03:25.418Z,14.77
2022-09-29T22:05:52.796Z,12.25
2022-09-29T22:08:20.230Z,10.48
2022-09-29T22:10:51.222Z,10.65
2022-09-29T22:13:18.846Z,11.63
2022-09-29T22:15:46.574Z,11.05
2022-09-29T22:18:13.852Z,11.48
2022-09-29T22:20:41.172Z,8.63
2022-09-29T22:23:08.525Z,10.95
2022-09-29T22:25:35.900Z,10.57
2022-09-29T22:28:03.213Z,10.00
2022-09-29T22:30:30.578Z,8.40
2022-09-29T22:32:57.898Z,9.50
2022-09-29T22:35:26.081Z,10.45
2022-09-29T22:37:53.354Z,9.67
2022-09-29T22:40:20.678Z,14.32
2022-09-29T22:42:48.227Z,13.65
2022-09-29T22:45:15.565Z,13.90
2022-09-29T22:47:42.934Z,10.77
2022-09-29T22:50:10.341Z,12.63
2022-09-29T22:52:38.055Z,9.88
2022-09-29T22:55:05.944Z,11.52
2022-09-29T22:57:35.059Z,10.40
2022-09-29T23:00:02.649Z,11.38
2022-09-29T23:02:29.959Z,9.47
2022-09-29T23:04:57.257Z,7.88
2022-09-29T23:07:24.552Z,7.07
2022-09-29T23:09:51.903Z,6.90
2022-09-29T23:12:20.088Z,7.93
2022-09-29T23:14:47.409Z,7.20
2022-09-29T23:17:14.667Z,8.10
2022-09-29T23:19:42.418Z,6.20
2022-09-29T23:22:09.732Z,6.72
2022-09-29T23:24:37.052Z,6.07
2022-09-29T23:27:04.387Z,7.27
2022-09-29T23:29:31.737Z,5.68
2022-09-29T23:31:59.119Z,6.90
2022-09-29T23:34:26.574Z,5.97
2022-09-29T23:36:54.036Z,5.20
2022-09-29T23:39:22.293Z,7.60
2022-09-29T23:41:51.045Z,7.13
2022-09-29T23:44:19.463Z,7.55
2022-09-29T23:46:47.648Z,8.00
2022-09-29T23:49:16.256Z,8.25
2022-09-29T23:51:44.926Z,11.07
2022-09-29T23:54:13.337Z,10.25
2022-09-29T23:56:40.796Z,5.75
2022-09-29T23:59:08.116Z,8.32
